< < Back
Terminal Aerodrome Forecast


Current Version              Previous Versions:   1  2  3  4  5  6  7  8  9  

Terminal Aerodrome Forecast

474
FTUS42 KJAX 232300
TAFSSI
TAF
KSSI 232331Z 2400/2424 VRB03KT P6SM SKC
     FM241400 10010KT P6SM FEW050=

Latest METAR

685
SAUS70 KWBC 240400
MTRSSI
METAR KSSI 240353Z AUTO 00000KT 10SM CLR 20/17 A2994 RMK AO2 SLP137
T02000167 PWINO $


USA.gov is the U.S. government's official web portal to all federal, state and local government web resources and services.